• Join FlightAware (Why Join?)
  • Login
  • US Flag 
12:09PM EDT


 

Airport Tracker/Info


-or-


 

Live Flight TrackerFlight Track Log ✈ N508QS ✈ 16-May-2013 ✈ KMMU - EGSS / STN

Flight Track Log - Related Links

Times and Time Zones

All times are in EDT time to prevent confusion due to time zone crossing. See the N508QS flight status page for this flight to view local times or setup timezone preferences in your user account.

Time Position Orientation Groundspeed Altitude Reporting Facility
EDT Latitude Longitude Course Direction KTS MPH feet Rate Location/Type
08:33PM 40.7333 -74.4333 77° East 216 249 2,700  Level New York TRACON
08:34PM 40.7333 -74.3500 90° East 280 322 4,900 1,620 Climbing New York TRACON
08:35PM 40.8000 -74.3167 21° North 276 318 6,000 540 Climbing New York TRACON
08:36PM 40.8833 -74.2833 17° North 274 315 6,000  Level New York TRACON
08:37PM 40.9500 -74.2333 30° Northeast 277 319 6,000  Level New York TRACON
08:38PM 41.2194 -73.8338 77° East  Level FlightAware Approximate
08:38PM 41.0167 -74.2000 21° North 276 318 6,000  Level New York TRACON
08:39PM 41.0833 -74.1667 21° North 274 315 6,000  Level New York TRACON
08:40PM 41.1500 -74.1167 29° Northeast 280 322 6,100 1,560 Climbing New York TRACON
08:41PM 41.1833 -74.0167 66° East 307 353 9,200 2,700 Climbing New York TRACON
08:43PM 41.2597 -73.6936 72° East 383 441 15,500 2,400 Climbing Boston Center
08:44PM 41.2881 -73.5617 74° East 405 466 17,600 2,340 Climbing Boston Center
08:45PM 41.3272 -73.3992 72° East 429 494 20,200 2,460 Climbing Boston Center
08:46PM 41.3617 -73.2394 74° East 443 510 22,600 2,220 Climbing Boston Center
08:47PM 41.4108 -73.0767 68° East 455 524 24,700 1,980 Climbing Boston Center
08:48PM 41.4783 -72.9139 61° Northeast 476 548 26,600 1,860 Climbing Boston Center
08:49PM 41.5433 -72.7369 64° Northeast 488 562 28,500 1,800 Climbing Boston Center
08:50PM 41.6125 -72.5594 62° Northeast 499 574 30,200 1,800 Climbing Boston Center
08:51PM 41.6814 -72.3844 62° Northeast 514 592 32,100 1,920 Climbing Boston Center
08:52PM 41.7478 -72.2092 63° Northeast 519 597 34,100 2,040 Climbing Boston Center
08:53PM 41.8161 -72.0306 63° Northeast 525 604 36,200 1,800 Climbing Boston Center
08:54PM 41.8842 -71.8572 62° Northeast 525 604 37,800 1,740 Climbing Boston Center
08:55PM 41.9478 -71.6808 64° Northeast 525 604 39,700 1,500 Climbing Boston Center
08:56PM 42.0172 -71.5094 61° Northeast 519 597 40,800 600 Climbing Boston Center
08:57PM 42.0803 -71.3408 63° Northeast 514 592 41,000 60 Climbing Boston Center
08:58PM 42.1472 -71.1603 63° Northeast 514 592 41,000  Level Boston Center
08:59PM 42.2117 -70.9797 64° Northeast 519 597 41,000  Level Boston Center
09:00PM 42.2739 -70.7958 65° Northeast 524 603 41,000  Level Boston Center
09:01PM 42.3400 -70.6172 63° Northeast 524 603 41,000  Level Boston Center
09:02PM 42.4056 -70.4381 64° Northeast 524 603 41,000  Level Boston Center
09:03PM 42.4669 -70.2589 65° Northeast 524 603 41,000  Level Boston Center
09:04PM 42.5342 -70.0789 63° Northeast 524 603 41,000  Level Boston Center
09:05PM 42.5969 -69.8986 65° Northeast 524 603 41,000  Level Boston Center
09:06PM 42.6575 -69.7128 66° East 530 610 41,000  Level Boston Center
09:07PM 42.7239 -69.5317 63° Northeast 530 610 41,000  Level Boston Center
09:08PM 42.7722 -69.3908 65° Northeast 525 604 41,000  Level Boston Center
09:09PM 42.8167 -69.2500 67° East 530 610 41,000  Level Moncton Center
09:10PM 42.8667 -69.0500 71° East 530 610 41,000  Level Moncton Center
09:10PM 42.9050 -69.0072 39° Northeast 525 604 41,000  Level Boston Center
09:11PM 42.9500 -68.8667 66° East 530 610 41,000  Level Moncton Center
09:12PM 43.0000 -68.6833 69° East 530 610 41,000  Level Moncton Center
09:12PM 43.0347 -68.6247 51° Northeast 525 604 41,000  Level Boston Center
09:13PM 43.0972 -68.4389 65° Northeast 525 604 41,000  Level Boston Center
09:14PM 43.1572 -68.2556 66° East 525 604 41,000 300 Level Boston Center
09:15PM 43.2172 -68.0717 66° East 525 604 41,700 1,080 Climbing Boston Center
09:16PM 43.2750 -67.8964 66° East 518 596 43,200 1,080 Climbing Boston Center
09:17PM 43.3000 -67.8000 70° East 520 598 43,500 540 Climbing Moncton Center
09:18PM 43.3500 -67.6167 69° East 510 587 44,100 480 Climbing Moncton Center
09:18PM 43.3878 -67.5478 53° Northeast 498 573 44,200 240 Climbing Boston Center
09:19PM 43.4444 -67.3686 66° East 498 573 44,500 300 Climbing Boston Center
09:20PM 43.5033 -67.1919 65° Northeast 498 573 44,800 300 Climbing Boston Center
09:21PM 43.5167 -67.0667 82° East 510 587 45,000 120 Climbing Moncton Center
09:22PM 43.5833 -66.8833 63° Northeast 510 587 45,000  Level Moncton Center
09:23PM 43.6667 -66.7333 52° Northeast 510 587 45,000  Level Moncton Center
09:24PM 43.7333 -66.5667 61° Northeast 510 587 45,000  Level Moncton Center
09:25PM 43.8000 -66.4167 58° Northeast 500 575 45,000  Level Moncton Center
09:26PM 43.8667 -66.2333 63° Northeast 500 575 45,000  Level Moncton Center
09:27PM 43.9333 -66.0667 61° Northeast 510 587 45,000  Level Moncton Center
09:28PM 44.0333 -65.8833 53° Northeast 510 587 45,000  Level Moncton Center
09:29PM 44.1000 -65.7167 61° Northeast 510 587 45,000  Level Moncton Center
09:30PM 44.1667 -65.5667 58° Northeast 510 587 45,000  Level Moncton Center
09:31PM 44.2333 -65.3833 63° Northeast 510 587 45,000  Level Moncton Center
09:32PM 44.3000 -65.2167 61° Northeast 520 598 45,000  Level Moncton Center
09:33PM 44.3667 -65.0333 63° Northeast 520 598 45,000  Level Moncton Center
09:34PM 44.4333 -64.8500 63° Northeast 520 598 45,000  Level Moncton Center
09:35PM 44.5167 -64.6833 55° Northeast 520 598 45,000  Level Moncton Center
09:36PM 44.5833 -64.4833 65° Northeast 520 598 45,000  Level Moncton Center
09:37PM 44.6500 -64.3333 58° Northeast 510 587 45,000  Level Moncton Center
09:38PM 44.7167 -64.1333 65° Northeast 510 587 45,000  Level Moncton Center
09:39PM 44.7833 -63.9667 61° Northeast 510 587 45,000  Level Moncton Center
09:40PM 44.8500 -63.8000 61° Northeast 500 575 45,000  Level Moncton Center
09:41PM 44.9167 -63.6333 60° Northeast 500 575 45,000  Level Moncton Center
09:42PM 44.9833 -63.4500 63° Northeast 500 575 45,000  Level Moncton Center
09:43PM 45.0500 -63.2833 60° Northeast 490 564 45,000  Level Moncton Center
09:44PM 45.1167 -63.1167 60° Northeast 490 564 45,000  Level Moncton Center
09:45PM 45.1833 -62.9333 63° Northeast 490 564 45,000  Level Moncton Center
09:46PM 45.2500 -62.7500 63° Northeast 490 564 45,000  Level Moncton Center
09:47PM 45.3167 -62.5833 60° Northeast 490 564 45,000  Level Moncton Center
09:48PM 45.3667 -62.4167 67° East 490 564 45,000  Level Moncton Center
09:49PM 45.4333 -62.2500 60° Northeast 490 564 45,000  Level Moncton Center
09:50PM 45.5000 -62.0833 60° Northeast 490 564 45,000  Level Moncton Center
09:51PM 45.5667 -61.9167 60° Northeast 490 564 45,000  Level Moncton Center
09:52PM 45.6333 -61.7167 64° Northeast 490 564 45,000  Level Moncton Center
09:53PM 45.6833 -61.5500 67° East 490 564 45,000  Level Moncton Center
09:54PM 45.7500 -61.3833 60° Northeast 490 564 45,000  Level Moncton Center
09:55PM 45.8167 -61.2000 62° Northeast 490 564 45,000  Level Moncton Center
09:56PM 45.8833 -61.0333 60° Northeast 490 564 45,000  Level Moncton Center
09:57PM 45.9333 -60.8667 67° East 490 564 45,000  Level Moncton Center
09:58PM 46.0000 -60.6833 62° Northeast 490 564 45,000  Level Moncton Center
09:59PM 46.0667 -60.4833 64° Northeast 500 575 45,000  Level Moncton Center
10:00PM 46.1167 -60.3167 67° East 500 575 45,000  Level Moncton Center
10:01PM 46.1833 -60.1500 60° Northeast 500 575 45,000  Level Moncton Center
10:02PM 46.2333 -59.9500 70° East 500 575 45,000  Level Moncton Center
10:03PM 46.3000 -59.7667 62° Northeast 500 575 45,000  Level Moncton Center
10:04PM 46.3500 -59.5667 70° East 500 575 45,000  Level Moncton Center
10:05PM 46.4167 -59.4500 50° Northeast 510 587 45,000  Level Gander Center
10:06PM 46.4833 -59.2500 64° Northeast 510 587 45,000  Level Gander Center
10:07PM 46.5167 -59.0667 75° East 510 587 45,000  Level Gander Center
10:08PM 46.6000 -58.8833 56° Northeast 510 587 45,000  Level Gander Center
10:09PM 46.6500 -58.7000 68° East 510 587 45,000  Level Gander Center
10:10PM 46.7167 -58.5000 64° Northeast 510 587 45,000  Level Gander Center
10:11PM 46.7667 -58.3000 70° East 510 587 45,000  Level Gander Center
10:12PM 46.8333 -58.1333 60° Northeast 510 587 45,000  Level Gander Center
10:13PM 46.9000 -57.9333 64° Northeast 510 587 45,000  Level Gander Center
10:14PM 46.9333 -57.7667 74° East 510 587 45,000  Level Gander Center
10:15PM 47.0000 -57.5667 64° Northeast 520 598 45,000  Level Gander Center
10:16PM 47.0667 -57.3667 64° Northeast 510 587 45,000  Level Gander Center
10:17PM 47.1167 -57.1833 68° East 520 598 45,000  Level Gander Center
10:18PM 47.1833 -56.9833 64° Northeast 520 598 45,000  Level Gander Center
10:19PM 47.2333 -56.7833 70° East 520 598 45,000  Level Gander Center
10:20PM 47.3000 -56.5833 64° Northeast 520 598 45,000  Level Gander Center
10:21PM 47.3500 -56.4000 68° East 520 598 45,000  Level Gander Center
10:22PM 47.4167 -56.2000 64° Northeast 520 598 45,000  Level Gander Center
10:23PM 47.4500 -56.0000 76° East 510 587 45,000  Level Gander Center
10:24PM 47.5333 -55.7833 60° Northeast 520 598 45,000  Level Gander Center
10:25PM 47.5667 -55.6167 73° East 520 598 45,000  Level Gander Center
10:26PM 47.6333 -55.4000 65° Northeast 530 610 45,000  Level Gander Center
10:27PM 47.6833 -55.2000 70° East 530 610 45,000  Level Gander Center
10:28PM 47.7333 -55.0000 70° East 530 610 45,000  Level Gander Center
10:29PM 47.8000 -54.7833 65° Northeast 530 610 45,000  Level Gander Center
10:30PM 47.8500 -54.6000 68° East 530 610 45,000  Level Gander Center
10:31PM 47.9000 -54.3667 72° East 530 610 45,000  Level Gander Center
10:32PM 47.9500 -54.1833 68° East 530 610 45,000  Level Gander Center
10:33PM 48.0167 -53.9833 63° Northeast 520 598 45,000  Level Gander Center
10:34PM 48.0667 -53.7667 71° East 520 598 45,000  Level Gander Center
10:35PM 48.1167 -53.5833 68° East 520 598 45,000  Level Gander Center
10:36PM 48.1667 -53.3833 69° East 520 598 45,000  Level Gander Center
10:37PM 48.2167 -53.1667 71° East 510 587 45,000  Level Gander Center
10:38PM 48.2833 -52.9833 61° Northeast 510 587 45,000  Level Gander Center
10:39PM 48.3333 -52.7833 69° East 510 587 45,000  Level Gander Center
10:40PM 48.3667 -52.6000 75° East 510 587 45,000  Level Gander Center
10:41PM 48.4167 -52.3833 71° East 510 587 45,000  Level Gander Center
10:42PM 48.4667 -52.1667 71° East 510 587 45,000  Level Gander Center
10:43PM 48.5167 -51.9833 68° East 510 587 45,000  Level Gander Center
10:44PM 48.5667 -51.7667 71° East 510 587 45,000  Level Gander Center
10:44PM 48.6000 -51.6167 71° East 510 587 45,000  Level Gander Center
10:45PM 48.6167 -51.5167 76° East 510 587 45,000  Level Moncton Center
10:45PM 48.6500 -51.4000 67° East 510 587 45,000  Level Gander Center
10:46PM 48.7000 -51.2167 67° East 520 598 45,000  Level Gander Center
10:47PM 48.7167 -51.1167 76° East 520 598 45,000  Level Moncton Center
10:48PM 48.7500 -50.9167 76° East 510 587 45,000  Level Moncton Center
10:49PM 48.8167 -50.7000 65° Northeast 510 587 45,000  Level Moncton Center
10:50PM 48.8500 -50.5000 76° East 510 587 45,000  Level Moncton Center
10:51PM 48.8833 -50.3500 71° East 510 587 45,000  Level Gander Center
10:52PM 48.9333 -50.1667 67° East 510 587 45,000  Level Gander Center
10:52PM 48.9667 -49.9667 76° East 510 587 45,000  Level Gander Center
10:53PM 49.0333 -49.7833 61° Northeast 510 587 45,000  Level Gander Center
10:54PM 49.0000 -50.0000 61° Northeast 495 570 45,000  Level ETMS Enhanced Traffic Management System
10:54PM 49.1000 -49.6167 61° Northeast 510 587 45,000  Level Gander Center
10:57PM 49.2204 -49.2870 61° Northeast  Level FlightAware Approximate
11:04PM 49.6674 -48.0249 61° Northeast  Level FlightAware Approximate
11:05PM 49.7301 -47.8428 62° Northeast  Level FlightAware Approximate
11:06PM 49.7925 -47.6601 62° Northeast  Level FlightAware Approximate
11:07PM 49.8547 -47.4770 62° Northeast  Level FlightAware Approximate
11:08PM 49.9166 -47.2934 62° Northeast  Level FlightAware Approximate
11:09PM 49.9781 -47.1094 62° Northeast  Level FlightAware Approximate
11:10PM 50.0394 -46.9249 63° Northeast  Level FlightAware Approximate
11:11PM 50.1004 -46.7399 63° Northeast  Level FlightAware Approximate
11:12PM 50.1611 -46.5544 63° Northeast  Level FlightAware Approximate
11:13PM 50.2215 -46.3680 64° Northeast  Level FlightAware Approximate
11:14PM 50.2808 -46.1810 64° Northeast  Level FlightAware Approximate
11:15PM 50.3398 -45.9935 64° Northeast  Level FlightAware Approximate
11:16PM 50.3985 -45.8055 64° Northeast  Level FlightAware Approximate
11:17PM 50.4568 -45.6171 64° Northeast  Level FlightAware Approximate
11:18PM 50.5149 -45.4282 64° Northeast  Level FlightAware Approximate
11:19PM 50.5727 -45.2388 64° Northeast  Level FlightAware Approximate
11:20PM 50.6301 -45.0490 64° Northeast  Level FlightAware Approximate
11:21PM 50.6873 -44.8587 65° Northeast  Level FlightAware Approximate
11:22PM 50.7441 -44.6680 65° Northeast  Level FlightAware Approximate
11:23PM 50.8007 -44.4767 65° Northeast  Level FlightAware Approximate
11:24PM 50.8569 -44.2851 65° Northeast  Level FlightAware Approximate
11:25PM 50.9128 -44.0929 65° Northeast  Level FlightAware Approximate
11:26PM 50.9683 -43.9003 65° Northeast  Level FlightAware Approximate
11:27PM 51.0236 -43.7073 65° Northeast  Level FlightAware Approximate
11:28PM 51.0785 -43.5137 66° East  Level FlightAware Approximate
11:29PM 51.1332 -43.3198 66° East  Level FlightAware Approximate
11:30PM 51.1875 -43.1253 66° East  Level FlightAware Approximate
11:31PM 51.2414 -42.9304 66° East  Level FlightAware Approximate
11:32PM 51.2951 -42.7351 66° East  Level FlightAware Approximate
11:33PM 51.3484 -42.5393 66° East  Level FlightAware Approximate
11:34PM 51.4014 -42.3430 67° East  Level FlightAware Approximate
11:35PM 51.4541 -42.1463 67° East  Level FlightAware Approximate
11:36PM 51.5064 -41.9491 67° East  Level FlightAware Approximate
11:37PM 51.5584 -41.7515 67° East  Level FlightAware Approximate
11:38PM 51.6101 -41.5534 67° East  Level FlightAware Approximate
11:39PM 51.6615 -41.3549 67° East  Level FlightAware Approximate
11:40PM 51.7125 -41.1559 67° East  Level FlightAware Approximate
11:41PM 51.7632 -40.9565 68° East  Level FlightAware Approximate
11:42PM 51.8135 -40.7567 68° East  Level FlightAware Approximate
11:43PM 51.8635 -40.5564 68° East  Level FlightAware Approximate
11:44PM 51.9132 -40.3556 68° East  Level FlightAware Approximate
11:45PM 51.9625 -40.1544 68° East  Level FlightAware Approximate
11:45PM 52.0000 -40.0000 77° East 493 567 45,000  Level ETMS Enhanced Traffic Management System
11:46PM 52.0071 -39.9506 77° East  Level FlightAware Approximate
11:47PM 52.0372 -39.7392 77° East  Level FlightAware Approximate
11:48PM 52.0670 -39.5276 77° East  Level FlightAware Approximate
11:49PM 52.0963 -39.3157 77° East  Level FlightAware Approximate
11:50PM 52.1253 -39.1035 77° East  Level FlightAware Approximate
11:51PM 52.2669 -38.0392 78° East 493 567 45,000  Level FlightAware Transoceanic
11:52PM 52.2945 -37.8199 78° East 493 567 45,000  Level FlightAware Transoceanic
11:53PM 52.3218 -37.6003 79° East 493 567 45,000  Level FlightAware Transoceanic
11:54PM 52.3486 -37.3805 79° East 493 567 45,000  Level FlightAware Transoceanic
11:55PM 52.3750 -37.1604 79° East 493 567 45,000  Level FlightAware Transoceanic
11:56PM 52.4010 -36.9401 79° East 493 567 45,000  Level FlightAware Transoceanic
11:57PM 52.4266 -36.7195 79° East 493 567 45,000  Level FlightAware Transoceanic
11:58PM 52.4518 -36.4986 79° East 493 567 45,000  Level FlightAware Transoceanic
11:59PM 52.4766 -36.2775 80° East 493 567 45,000  Level FlightAware Transoceanic
12:00AM 52.5009 -36.0561 80° East 493 567 45,000  Level FlightAware Transoceanic
12:01AM 52.5249 -35.8345 80° East 493 567 45,000  Level FlightAware Transoceanic
12:02AM 52.5484 -35.6127 80° East 493 567 45,000  Level FlightAware Transoceanic
12:03AM 52.5715 -35.3906 80° East 493 567 45,000  Level FlightAware Transoceanic
12:04AM 52.5942 -35.1683 81° East 493 567 45,000  Level FlightAware Transoceanic
12:05AM 52.6165 -34.9457 81° East 493 567 45,000  Level FlightAware Transoceanic
12:06AM 52.6384 -34.7229 81° East 493 567 45,000  Level FlightAware Transoceanic
12:07AM 52.6598 -34.5000 81° East 493 567 45,000  Level FlightAware Transoceanic
12:08AM 52.6809 -34.2767 81° East 493 567 45,000  Level FlightAware Transoceanic
12:09AM 52.7015 -34.0533 81° East 493 567 45,000  Level FlightAware Transoceanic
12:10AM 52.7217 -33.8297 82° East 493 567 45,000  Level FlightAware Transoceanic
12:11AM 52.7415 -33.6059 82° East 493 567 45,000  Level FlightAware Transoceanic
12:12AM 52.7608 -33.3818 82° East 493 567 45,000  Level FlightAware Transoceanic
12:13AM 52.7797 -33.1576 82° East 493 567 45,000  Level FlightAware Transoceanic
12:14AM 52.7982 -32.9332 82° East 493 567 45,000  Level FlightAware Transoceanic
12:15AM 52.8163 -32.7086 83° East 493 567 45,000  Level FlightAware Transoceanic
12:16AM 52.8340 -32.4838 83° East 493 567 45,000  Level FlightAware Transoceanic
12:17AM 52.8512 -32.2588 83° East 493 567 45,000  Level FlightAware Transoceanic
12:18AM 52.8680 -32.0336 83° East 493 567 45,000  Level FlightAware Transoceanic
12:19AM 52.8844 -31.8083 83° East 493 567 45,000  Level FlightAware Transoceanic
12:20AM 52.9003 -31.5828 83° East 493 567 45,000  Level FlightAware Transoceanic
12:21AM 52.9159 -31.3571 84° East 493 567 45,000  Level FlightAware Transoceanic
12:22AM 52.9310 -31.1313 84° East 493 567 45,000  Level FlightAware Transoceanic
12:23AM 52.9456 -30.9054 84° East 493 567 45,000  Level FlightAware Transoceanic
12:24AM 52.9599 -30.6792 84° East 493 567 45,000  Level FlightAware Transoceanic
12:25AM 52.9737 -30.4530 84° East 493 567 45,000  Level FlightAware Transoceanic
12:26AM 52.9870 -30.2265 84° East 493 567 45,000  Level FlightAware Transoceanic
12:27AM 52.9997 -30.0058 84° East  Level FlightAware Approximate
12:28AM 53.0117 -29.7848 85° East  Level FlightAware Approximate
12:29AM 53.0086 -29.7903 86° East  Level FlightAware Approximate
12:30AM 53.0173 -29.5689 86° East  Level FlightAware Approximate
12:31AM 53.0000 -30.0000 86° East 481 554 45,000  Level ETMS Enhanced Traffic Management System
12:31AM 53.0256 -29.3474 86° East  Level FlightAware Approximate
12:32AM 53.0335 -29.1258 87° East  Level FlightAware Approximate
12:33AM 53.0410 -28.9042 87° East  Level FlightAware Approximate
12:34AM 53.0481 -28.6824 87° East  Level FlightAware Approximate
12:35AM 53.0547 -28.4607 87° East  Level FlightAware Approximate
12:36AM 53.0610 -28.2388 87° East  Level FlightAware Approximate
12:37AM 53.0725 -27.7809 88° East 481 554 45,000  Level FlightAware Transoceanic
12:38AM 53.0775 -27.5586 88° East 481 554 45,000  Level FlightAware Transoceanic
12:39AM 53.0821 -27.3363 88° East 481 554 45,000  Level FlightAware Transoceanic
12:40AM 53.0862 -27.1139 88° East 481 554 45,000  Level FlightAware Transoceanic
12:41AM 53.0899 -26.8915 88° East 481 554 45,000  Level FlightAware Transoceanic
12:42AM 53.0933 -26.6691 89° East 481 554 45,000  Level FlightAware Transoceanic
12:43AM 53.0962 -26.4466 89° East 481 554 45,000  Level FlightAware Transoceanic
12:44AM 53.0987 -26.2241 89° East 481 554 45,000  Level FlightAware Transoceanic
12:45AM 53.1007 -26.0016 89° East 481 554 45,000  Level FlightAware Transoceanic
12:46AM 53.1024 -25.7790 89° East 481 554 45,000  Level FlightAware Transoceanic
12:47AM 53.1036 -25.5564 90° East 481 554 45,000  Level FlightAware Transoceanic
12:48AM 53.1045 -25.3339 90° East 481 554 45,000  Level FlightAware Transoceanic
12:49AM 53.1049 -25.1113 90° East 481 554 45,000  Level FlightAware Transoceanic
12:50AM 53.1049 -24.8887 90° East 481 554 45,000  Level FlightAware Transoceanic
12:51AM 53.1045 -24.6661 90° East 481 554 45,000  Level FlightAware Transoceanic
12:52AM 53.1036 -24.4436 90° East 481 554 45,000  Level FlightAware Transoceanic
12:53AM 53.1024 -24.2210 91° East 481 554 45,000  Level FlightAware Transoceanic
12:54AM 53.1007 -23.9984 91° East 481 554 45,000  Level FlightAware Transoceanic
12:55AM 53.0987 -23.7759 91° East 481 554 45,000  Level FlightAware Transoceanic
12:56AM 53.0962 -23.5534 91° East 481 554 45,000  Level FlightAware Transoceanic
12:57AM 53.0933 -23.3309 91° East 481 554 45,000  Level FlightAware Transoceanic
12:58AM 53.0899 -23.1085 92° East 481 554 45,000  Level FlightAware Transoceanic
12:59AM 53.0862 -22.8861 92° East 481 554 45,000  Level FlightAware Transoceanic
01:00AM 53.0821 -22.6637 92° East 481 554 45,000  Level FlightAware Transoceanic
01:01AM 53.0775 -22.4414 92° East 481 554 45,000  Level FlightAware Transoceanic
01:02AM 53.0725 -22.2191 92° East 481 554 45,000  Level FlightAware Transoceanic
01:03AM 53.0671 -21.9969 92° East 481 554 45,000  Level FlightAware Transoceanic
01:04AM 53.0613 -21.7747 93° East 481 554 45,000  Level FlightAware Transoceanic
01:05AM 53.0551 -21.5526 93° East 481 554 45,000  Level FlightAware Transoceanic
01:06AM 53.0485 -21.3306 93° East 481 554 45,000  Level FlightAware Transoceanic
01:07AM 53.0414 -21.1086 93° East 481 554 45,000  Level FlightAware Transoceanic
01:08AM 53.0340 -20.8867 93° East 481 554 45,000  Level FlightAware Transoceanic
01:09AM 53.0261 -20.6649 93° East 481 554 45,000  Level FlightAware Transoceanic
01:10AM 53.0178 -20.4432 94° East 481 554 45,000  Level FlightAware Transoceanic
01:11AM 53.0091 -20.2215 94° East 481 554 45,000 -60 Level FlightAware Transoceanic
01:12AM 53.0000 -20.0002 94° East  Level FlightAware Approximate
01:13AM 52.9906 -19.7790 94° East  Level FlightAware Approximate
01:14AM 52.9920 -19.7791 93° East  Level FlightAware Approximate
01:15AM 52.9835 -19.5578 94° East  Level FlightAware Approximate
01:16AM 52.9747 -19.3366 94° East  Level FlightAware Approximate
01:17AM 52.9654 -19.1155 94° East  Level FlightAware Approximate
01:18AM 52.9557 -18.8945 94° East  Level FlightAware Approximate
01:19AM 52.9456 -18.6735 94° East  Level FlightAware Approximate
01:20AM 52.9351 -18.4527 94° East  Level FlightAware Approximate
01:21AM 52.9242 -18.2320 95° East  Level FlightAware Approximate
01:22AM 52.9129 -18.0114 95° East  Level FlightAware Approximate
01:23AM 52.9012 -17.7910 95° East  Level FlightAware Approximate
01:24AM 52.8890 -17.5706 95° East  Level FlightAware Approximate
01:25AM 52.8765 -17.3504 95° East  Level FlightAware Approximate
01:26AM 52.8635 -17.1303 95° East  Level FlightAware Approximate
01:27AM 52.8502 -16.9103 96° East  Level FlightAware Approximate
01:28AM 52.8364 -16.6905 96° East  Level FlightAware Approximate
01:29AM 52.8223 -16.4708 96° East  Level FlightAware Approximate
01:30AM 52.8077 -16.2513 96° East  Level FlightAware Approximate
01:31AM 52.7927 -16.0319 96° East  Level FlightAware Approximate
01:32AM 52.7773 -15.8127 97° East  Level FlightAware Approximate
01:33AM 52.7615 -15.5936 97° East  Level FlightAware Approximate
01:34AM 52.7453 -15.3747 97° East  Level FlightAware Approximate
01:35AM 52.7287 -15.1559 97° East  Level FlightAware Approximate
01:36AM 52.7121 -14.9373 97° East  Level FlightAware Approximate
01:37AM 52.6959 -14.7186 97° East  Level FlightAware Approximate
01:38AM 52.6794 -14.5001 97° East  Level FlightAware Approximate
01:39AM 52.6624 -14.2817 97° East  Level FlightAware Approximate
01:40AM 52.6451 -14.0635 97° East  Level FlightAware Approximate
01:41AM 52.6273 -13.8455 98° East  Level FlightAware Approximate
01:42AM 52.6091 -13.6277 98° East  Level FlightAware Approximate
01:43AM 52.5906 -13.4101 98° East  Level FlightAware Approximate
01:44AM 52.5716 -13.1926 98° East  Level FlightAware Approximate
01:45AM 52.5523 -12.9754 98° East  Level FlightAware Approximate
01:46AM 52.5325 -12.7583 98° East  Level FlightAware Approximate
01:47AM 52.5124 -12.5414 99° East  Level FlightAware Approximate
01:48AM 52.4918 -12.3248 99° East  Level FlightAware Approximate
01:49AM 52.4709 -12.1083 99° East  Level FlightAware Approximate
01:50AM 52.4496 -11.8920 99° East  Level FlightAware Approximate
01:51AM 52.4278 -11.6760 99° East  Level FlightAware Approximate
01:52AM 52.4052 -11.4603 100° East  Level FlightAware Approximate
01:53AM 52.3817 -11.2450 100° East  Level FlightAware Approximate
01:54AM 52.3578 -11.0299 100° East  Level FlightAware Approximate
01:55AM 52.3336 -10.8150 100° East  Level FlightAware Approximate
01:56AM 52.3089 -10.6004 101° East  Level FlightAware Approximate
01:57AM 52.2839 -10.3860 101° East  Level FlightAware Approximate
01:58AM 52.2584 -10.1719 101° East  Level FlightAware Approximate
01:59AM 52.2326 -9.9580 101° East  Level FlightAware Approximate
02:00AM 52.2064 -9.7443 101° East  Level FlightAware Approximate
02:01AM 52.1798 -9.5309 101° East  Level FlightAware Approximate
02:02AM 52.1528 -9.3178 102° East  Level FlightAware Approximate
02:03AM 52.1255 -9.1049 102° East  Level FlightAware Approximate
02:04AM 52.0977 -8.8923 102° East  Level FlightAware Approximate
02:04AM 51.9071 -8.9915 102° East 488 562 43,500  Level FlightAware UK
02:04AM 51.9044 -8.9277 94° East 488 562 43,500  Level FlightAware UK
02:04AM 51.9017 -8.8635 94° East 490 564 43,500  Level FlightAware UK
02:05AM 51.8989 -8.7993 94° East 486 559 43,500  Level FlightAware UK
02:05AM 51.8964 -8.7354 94° East 490 564 43,500  Level FlightAware UK
02:05AM 51.8936 -8.6711 94° East 490 564 43,500  Level FlightAware UK
02:06AM 51.8907 -8.6069 94° East 492 566 43,500  Level FlightAware UK
02:06AM 51.8878 -8.5426 94° East 494 568 43,500  Level FlightAware UK
02:06AM 51.8849 -8.4783 94° East 492 566 43,500  Level FlightAware UK
02:07AM 51.8819 -8.4143 94° East 490 564 43,500  Level FlightAware UK
02:07AM 51.8789 -8.3504 94° East 488 562 43,500  Level FlightAware UK
02:07AM 51.8758 -8.2870 95° East 486 559 43,500  Level FlightAware UK
02:07AM 51.8728 -8.2230 94° East 486 559 43,500  Level FlightAware UK
02:08AM 51.8700 -8.1593 94° East 488 562 43,500  Level FlightAware UK
02:08AM 51.8670 -8.0953 94° East 488 562 43,500  Level FlightAware UK
02:08AM 51.8636 -8.0304 95° East 494 568 43,500  Level FlightAware UK
02:09AM 51.8602 -7.9656 95° East 494 568 43,500  Level FlightAware UK
02:09AM 51.8569 -7.9009 95° East 494 568 43,500  Level FlightAware UK
02:09AM 51.8535 -7.8366 95° East 492 566 43,500  Level FlightAware UK
02:10AM 51.8501 -7.7726 95° East 492 566 43,500  Level FlightAware UK
02:10AM 51.8468 -7.7091 95° East 490 564 43,500  Level FlightAware UK
02:10AM 51.8436 -7.6458 95° East 488 562 43,500  Level FlightAware UK
02:10AM 51.8412 -7.5824 93° East 490 564 43,500  Level FlightAware UK
02:11AM 51.8366 -7.5210 97° East 488 562 43,500  Level FlightAware UK
02:11AM 51.8334 -7.4588 95° East 486 559 43,500  Level FlightAware UK
02:11AM 51.8314 -7.3959 93° East 488 562 43,500  Level FlightAware UK
02:12AM 51.8282 -7.3335 95° East 488 562 43,500  Level FlightAware UK
02:12AM 51.8247 -7.2706 95° East 488 562 43,500  Level FlightAware UK
02:12AM 51.8213 -7.2076 95° East 492 566 43,500  Level FlightAware UK
02:13AM 51.8246 -7.1441 85° East 492 566 43,500  Level FlightAware UK
02:13AM 51.8277 -7.0803 85° East 490 564 43,500  Level FlightAware UK
02:13AM 51.8312 -7.0171 85° East 488 562 43,500  Level FlightAware UK
02:13AM 51.8349 -6.9545 85° East 488 562 43,500  Level FlightAware UK
02:14AM 51.8385 -6.8923 85° East 486 559 43,500  Level FlightAware UK
02:14AM 51.8420 -6.8299 85° East 486 559 43,500  Level FlightAware UK
02:14AM 51.8457 -6.7674 85° East 486 559 43,500  Level FlightAware UK
02:15AM 51.8496 -6.7047 84° East 488 562 43,500  Level FlightAware UK
02:15AM 51.8534 -6.6419 84° East 490 564 43,500  Level FlightAware UK
02:15AM 51.8573 -6.5789 84° East 490 564 43,500  Level FlightAware UK
02:16AM 51.8614 -6.5156 84° East 488 562 43,500  Level FlightAware UK
02:16AM 51.8652 -6.4521 84° East 488 562 43,500  Level FlightAware UK
02:16AM 51.8691 -6.3885 84° East 490 564 43,500  Level FlightAware UK
02:16AM 51.8728 -6.3248 85° East 488 562 43,500 -360 Level FlightAware UK
02:17AM 51.8766 -6.2610 85° East 488 562 43,300 -1,020 Descending FlightAware UK
02:17AM 51.8804 -6.1971 84° East 488 562 42,900 -1,380 Descending FlightAware UK
02:17AM 51.8843 -6.1336 84° East 482 555 42,500 -1,680 Descending FlightAware UK
02:18AM 51.8883 -6.0710 84° East 484 557 41,900 -2,520 Descending FlightAware UK
02:18AM 51.8925 -6.0101 84° East 484 557 41,000 -2,880 Descending FlightAware UK
02:18AM 51.8964 -5.9473 84° East 484 557 40,200 -2,700 Descending FlightAware UK
02:19AM 51.9004 -5.8849 84° East 488 562 39,400 -2,040 Descending FlightAware UK
02:19AM 51.9047 -5.8228 84° East 484 557 39,000 -2,340 Descending FlightAware UK
02:19AM 51.9088 -5.7615 84° East 482 555 38,000 -3,360 Descending FlightAware UK
02:19AM 51.9129 -5.7002 84° East 482 555 37,000 -3,540 Descending FlightAware UK
02:20AM 51.9167 -5.6382 84° East 486 559 35,900 -3,360 Descending FlightAware UK
02:20AM 51.9212 -5.5760 83° East 484 557 35,000 -3,360 Descending FlightAware UK
02:20AM 51.9256 -5.5138 83° East 490 564 33,900 -2,520 Descending FlightAware UK
02:21AM 51.9305 -5.4513 83° East 484 557 33,500 -720 Descending FlightAware UK
02:21AM 51.9351 -5.3888 83° East 484 557 33,500  Level FlightAware UK
02:21AM 51.9398 -5.3256 83° East 482 555 33,500  Level FlightAware UK
02:22AM 51.9444 -5.2639 83° East 482 555 33,500  Level FlightAware UK
02:22AM 51.9491 -5.2010 83° East 480 552 33,500  Level FlightAware UK
02:22AM 51.9537 -5.1389 83° East 480 552 33,500 -360 Level FlightAware UK
02:22AM 51.9529 -5.0770 91° East 484 557 33,300 -840 Descending FlightAware UK
02:23AM 51.9438 -5.0163 104° East 486 559 33,000 -1,020 Descending FlightAware UK
02:23AM 51.9319 -4.9575 108° East 478 550 32,700 -840 Descending FlightAware UK
02:23AM 51.9200 -4.8990 108° East 484 557 32,500 -360 Descending FlightAware UK
02:24AM 51.9077 -4.8405 109° East 482 555 32,500  Level FlightAware UK
02:24AM 51.8955 -4.7821 109° East 478 550 32,500  Level FlightAware UK
02:24AM 51.8834 -4.7239 109° East 480 552 32,500  Level FlightAware UK
02:25AM 51.8713 -4.6659 109° East 480 552 32,500  Level FlightAware UK
02:25AM 51.8592 -4.6076 109° East 484 557 32,500  Level FlightAware UK
02:25AM 51.8470 -4.5491 109° East 484 557 32,500  Level FlightAware UK
02:25AM 51.8350 -4.4898 108° East 482 555 32,500  Level FlightAware UK
02:26AM 51.8235 -4.4102 103° East 482 555 32,500  Level FlightAware UK
02:26AM 51.8148 -4.3498 103° East 482 555 32,500  Level FlightAware UK
02:26AM 51.8059 -4.2899 104° East 482 555 32,500  Level FlightAware UK
02:27AM 51.7940 -4.2101 103° East 480 552 32,500  Level FlightAware UK
02:27AM 51.7822 -4.1306 103° East 478 550 32,500  Level FlightAware UK
02:28AM 51.7732 -4.0709 104° East 480 552 32,500  Level FlightAware UK
02:28AM 51.7521 -3.9311 104° East 484 557 32,500  Level FlightAware UK
02:29AM 51.7336 -3.8105 104° East 484 557 32,500  Level FlightAware UK
02:29AM 51.7243 -3.7498 104° East 482 555 32,500  Level FlightAware UK
02:29AM 51.7153 -3.6903 104° East 482 555 32,500  Level FlightAware UK
02:30AM 51.7064 -3.6312 104° East 482 555 32,500  Level FlightAware UK
02:30AM 51.6976 -3.5726 104° East 480 552 32,500  Level FlightAware UK
02:30AM 51.6887 -3.5137 104° East 480 552 32,500  Level FlightAware UK
02:31AM 51.6739 -3.4146 104° East 480 552 32,500  Level FlightAware UK
02:31AM 51.6622 -3.3356 103° East 484 557 32,500  Level FlightAware UK
02:32AM 51.6531 -3.2762 104° East 484 557 32,500  Level FlightAware UK
02:32AM 51.6439 -3.2170 104° East 484 557 32,500  Level FlightAware UK
02:32AM 51.6348 -3.1579 104° East 480 552 32,500 -420 Level FlightAware UK
02:33AM 51.6197 -3.0598 104° East 482 555 32,200 -1,140 Descending FlightAware UK
02:33AM 51.6076 -2.9816 104° East 482 555 31,500 -1,860 Descending FlightAware UK
02:33AM 51.5988 -2.9230 104° East 480 552 30,900 -2,040 Descending FlightAware UK
02:34AM 51.5913 -2.8643 102° East 482 555 30,300 -2,040 Descending FlightAware UK
02:34AM 51.5838 -2.8061 102° East 480 552 29,700 -2,040 Descending FlightAware UK
02:35AM 51.5657 -2.6585 101° East 446 513 28,100 -2,040 Descending FlightAware UK
02:35AM 51.5586 -2.6039 102° East 448 516 27,500 -1,920 Descending FlightAware UK
02:36AM 51.5410 -2.4775 103° East 446 513 26,200 -1,860 Descending FlightAware UK
02:36AM 51.5267 -2.3725 102° East 438 504 25,100 -1,920 Descending FlightAware UK
02:37AM 51.5173 -2.3031 102° East 430 495 24,300 -1,920 Descending FlightAware UK
02:37AM 51.5081 -2.2346 102° East 426 490 23,600 -1,800 Descending FlightAware UK
02:38AM 51.4861 -2.0653 102° East 420 483 21,800 -1,860 Descending FlightAware UK
02:38AM 51.4792 -2.0157 103° East 414 476 21,200 -1,740 Descending FlightAware UK
02:39AM 51.4699 -1.9507 103° East 410 472 20,600 -1,680 Descending FlightAware UK
02:39AM 51.4585 -1.8699 103° East 400 460 19,700 -1,680 Descending FlightAware UK
02:40AM 51.4484 -1.8049 104° East 402 463 19,100 -1,560 Descending FlightAware UK
02:40AM 51.4407 -1.7555 104° East 398 458 18,600 -1,800 Descending FlightAware UK
02:40AM 51.4334 -1.7072 104° East 392 451 18,000 -1,860 Descending FlightAware UK
02:41AM 51.4260 -1.6594 104° East 390 449 17,500 -1,620 Descending FlightAware UK
02:41AM 51.4160 -1.5957 104° East 388 447 16,900 -1,440 Descending FlightAware UK
02:41AM 51.4090 -1.5482 103° East 388 447 16,500 -720 Descending FlightAware UK
02:42AM 51.4019 -1.5004 103° East 384 442 16,500  Level FlightAware UK
02:42AM 51.3949 -1.4533 103° East 384 442 16,500  Level FlightAware UK
02:42AM 51.3878 -1.4064 104° East 384 442 16,500  Level FlightAware UK
02:43AM 51.3807 -1.3594 104° East 384 442 16,500  Level FlightAware UK
02:43AM 51.3736 -1.3122 104° East 386 444 16,500  Level FlightAware UK
02:43AM 51.3638 -1.2494 104° East 384 442 16,500  Level FlightAware UK
02:44AM 51.3584 -1.2019 100° East 384 442 16,500  Level FlightAware UK
02:44AM 51.3641 -1.0875 85° East 384 442 16,500  Level FlightAware UK
02:45AM 51.3720 -1.0062 81° East 384 442 16,500  Level FlightAware UK
02:45AM 51.3817 -0.9078 81° East 384 442 16,500  Level FlightAware UK
02:46AM 51.3863 -0.8590 81° East 384 442 16,500  Level FlightAware UK
02:46AM 51.3941 -0.7778 81° East 384 442 16,500  Level FlightAware UK
02:47AM 51.3986 -0.7293 81° East 382 440 16,500  Level FlightAware UK
02:47AM 51.4078 -0.6322 81° East 386 444 16,500  Level FlightAware UK
02:48AM 51.4140 -0.5668 81° East 384 442 16,500  Level FlightAware UK
02:48AM 51.4215 -0.4855 82° East 384 442 16,500  Level FlightAware UK
02:48AM 51.4263 -0.4365 81° East 384 442 16,500 -1,020 Level FlightAware UK
02:49AM 51.4377 -0.3903 68° East 384 442 15,900 -1,740 Descending FlightAware UK
02:49AM 51.4625 -0.3358 54° Northeast 380 437 15,300 -1,680 Descending FlightAware UK
02:49AM 51.4880 -0.3058 36° Northeast 376 433 14,700 -1,740 Descending FlightAware UK
02:50AM 51.5261 -0.2760 26° Northeast 372 428 14,100 -1,860 Descending FlightAware UK
02:50AM 51.5549 -0.2543 25° Northeast 370 426 13,400 -2,040 Descending FlightAware UK
02:51AM 51.6023 -0.2185 25° Northeast 366 421 12,500 -1,800 Descending FlightAware UK
02:51AM 51.6299 -0.1975 25° Northeast 360 414 12,000 -1,800 Descending FlightAware UK
02:52AM 51.6936 -0.1490 25° Northeast 344 396 10,700 -1,380 Descending FlightAware UK
02:52AM 51.7261 -0.1242 25° Northeast 314 361 10,500 -780 Descending FlightAware UK
02:52AM 51.7564 -0.1022 24° Northeast 296 341 10,100 -1,440 Descending FlightAware UK
02:53AM 51.7786 -0.0867 23° Northeast 292 336 9,500 -1,260 Descending FlightAware UK
02:53AM 51.8137 -0.0616 24° Northeast 268 308 9,100 -1,020 Descending FlightAware UK
02:54AM 51.8589 -0.0278 25° Northeast 252 290 8,300 -1,200 Descending FlightAware UK
02:54AM 51.8904 -0.0035 25° Northeast 252 290 7,700 -1,200 Descending FlightAware UK
02:55AM 51.9466 0.0559 33° Northeast 244 281 6,500 -1,200 Descending FlightAware UK
02:56AM 51.9624 0.0754 37° Northeast 244 281 6,200 -1,200 Descending FlightAware UK
02:56AM 51.9779 0.0952 38° Northeast 246 283 5,800 -1,380 Descending FlightAware UK
02:56AM 51.9835 0.1255 73° East 242 278 5,400 -1,200 Descending FlightAware UK
02:57AM 51.9754 0.1544 114° Southeast 240 276 5,100 -1,200 Descending FlightAware UK
02:57AM 51.9574 0.1681 155° Southeast 236 272 4,700 -720 Descending FlightAware UK
02:58AM 51.9180 0.1279 212° Southwest 236 272 4,400 -900 Descending FlightAware UK
02:58AM 51.8805 0.0641 226° Southwest 232 267 3,400 -1,140 Descending FlightAware UK
02:59AM 51.8358 0.0003 221° Southwest 222 255 2,500 -780 Descending FlightAware UK
03:00AM 51.8173 -0.0009 182° South 206 237 2,500 -360 Level FlightAware UK
03:00AM 51.7999 -0.0005 179° South 198 228 2,300 -1,020 Descending FlightAware UK
03:00AM 51.7847 0.0237 135° Southeast 194 223 1,800 -1,260 Descending FlightAware UK
03:01AM 51.7823 0.0570 96° East 196 226 1,300 -780 Descending FlightAware UK
03:02AM 51.8093 0.1208 56° Northeast 166 191 700 -480 Descending FlightAware UK
03:02AM 51.8187 0.1350 43° Northeast 166 191 700  Level FlightAware UK
03:06AM 51.8833 0.2333 79° East  Level FlightAware Approximate